sensor_id;sensor_type;location;lat;lon;timestamp;temperature;humidity
1594;DHT22;790;47.000;16.084;2024-01-07T00:01:08;6.50;99.90
1594;DHT22;790;47.000;16.084;2024-01-07T00:07:31;6.60;99.90
1594;DHT22;790;47.000;16.084;2024-01-07T00:18:51;6.60;99.90
1594;DHT22;790;47.000;16.084;2024-01-07T00:25:13;6.60;99.90
1594;DHT22;790;47.000;16.084;2024-01-07T00:31:35;6.60;99.90
1594;DHT22;790;47.000;16.084;2024-01-07T00:38:00;6.50;99.90
1594;DHT22;790;47.000;16.084;2024-01-07T00:44:21;6.70;99.90
1594;DHT22;790;47.000;16.084;2024-01-07T00:50:44;6.70;99.90
1594;DHT22;790;47.000;16.084;2024-01-07T00:57:09;6.50;99.90
1594;DHT22;790;47.000;16.084;2024-01-07T01:03:32;6.60;99.90
1594;DHT22;790;47.000;16.084;2024-01-07T01:09:54;6.60;99.90
1594;DHT22;790;47.000;16.084;2024-01-07T01:21:12;6.60;99.90
1594;DHT22;790;47.000;16.084;2024-01-07T01:27:34;6.50;99.90
1594;DHT22;790;47.000;16.084;2024-01-07T01:33:57;6.50;99.90
1594;DHT22;790;47.000;16.084;2024-01-07T01:40:21;6.40;99.90
1594;DHT22;790;47.000;16.084;2024-01-07T01:46:45;6.40;99.90
1594;DHT22;790;47.000;16.084;2024-01-07T01:53:08;6.50;99.90
1594;DHT22;790;47.000;16.084;2024-01-07T01:59:34;6.50;99.90
1594;DHT22;790;47.000;16.084;2024-01-07T02:05:56;6.50;99.90
1594;DHT22;790;47.000;16.084;2024-01-07T02:12:19;6.50;99.90
1594;DHT22;790;47.000;16.084;2024-01-07T02:23:37;6.50;99.90
1594;DHT22;790;47.000;16.084;2024-01-07T02:30:01;6.40;99.90
1594;DHT22;790;47.000;16.084;2024-01-07T02:36:23;6.40;99.90
1594;DHT22;790;47.000;16.084;2024-01-07T02:42:45;6.40;99.90
1594;DHT22;790;47.000;16.084;2024-01-07T02:49:09;6.30;99.90
1594;DHT22;790;47.000;16.084;2024-01-07T02:55:31;6.40;99.90
1594;DHT22;790;47.000;16.084;2024-01-07T03:01:54;6.40;99.90
1594;DHT22;790;47.000;16.084;2024-01-07T03:08:18;6.50;99.90
1594;DHT22;790;47.000;16.084;2024-01-07T03:14:41;6.40;99.90
1594;DHT22;790;47.000;16.084;2024-01-07T03:26:00;6.30;99.90
1594;DHT22;790;47.000;16.084;2024-01-07T03:32:22;6.30;99.90
1594;DHT22;790;47.000;16.084;2024-01-07T03:38:45;6.30;99.90
1594;DHT22;790;47.000;16.084;2024-01-07T03:45:09;6.30;99.90
1594;DHT22;790;47.000;16.084;2024-01-07T03:51:31;6.30;99.90
1594;DHT22;790;47.000;16.084;2024-01-07T03:57:54;6.20;99.90
1594;DHT22;790;47.000;16.084;2024-01-07T04:04:17;6.10;99.90
1594;DHT22;790;47.000;16.084;2024-01-07T04:10:40;6.20;99.90
1594;DHT22;790;47.000;16.084;2024-01-07T04:17:02;6.10;99.90
1594;DHT22;790;47.000;16.084;2024-01-07T04:28:21;6.10;99.90
1594;DHT22;790;47.000;16.084;2024-01-07T04:34:44;6.10;99.90
1594;DHT22;790;47.000;16.084;2024-01-07T04:41:06;6.10;99.90
1594;DHT22;790;47.000;16.084;2024-01-07T04:47:31;6.10;99.90
1594;DHT22;790;47.000;16.084;2024-01-07T04:53:54;5.90;99.90
1594;DHT22;790;47.000;16.084;2024-01-07T05:00:17;5.80;99.90
1594;DHT22;790;47.000;16.084;2024-01-07T05:06:44;5.80;99.90
1594;DHT22;790;47.000;16.084;2024-01-07T05:13:07;5.80;99.90
1594;DHT22;790;47.000;16.084;2024-01-07T05:19:29;5.90;99.90
1594;DHT22;790;47.000;16.084;2024-01-07T05:30:49;5.80;99.90
1594;DHT22;790;47.000;16.084;2024-01-07T05:37:11;5.60;99.90
1594;DHT22;790;47.000;16.084;2024-01-07T05:43:35;5.50;99.90
1594;DHT22;790;47.000;16.084;2024-01-07T05:49:59;5.30;99.90
1594;DHT22;790;47.000;16.084;2024-01-07T05:56:21;5.20;99.90
1594;DHT22;790;47.000;16.084;2024-01-07T06:02:43;5.10;99.90
1594;DHT22;790;47.000;16.084;2024-01-07T06:09:07;5.00;99.90
1594;DHT22;790;47.000;16.084;2024-01-07T06:15:29;4.70;99.90
1594;DHT22;790;47.000;16.084;2024-01-07T06:21:51;4.60;99.90
1594;DHT22;790;47.000;16.084;2024-01-07T06:33:09;4.60;99.90
1594;DHT22;790;47.000;16.084;2024-01-07T06:39:33;4.50;99.90
1594;DHT22;790;47.000;16.084;2024-01-07T06:45:55;4.50;99.90
1594;DHT22;790;47.000;16.084;2024-01-07T06:52:19;4.50;99.90
1594;DHT22;790;47.000;16.084;2024-01-07T06:58:43;4.40;99.90
1594;DHT22;790;47.000;16.084;2024-01-07T07:05:06;4.50;99.90
1594;DHT22;790;47.000;16.084;2024-01-07T07:11:30;4.60;99.90
1594;DHT22;790;47.000;16.084;2024-01-07T07:17:52;4.80;99.90
1594;DHT22;790;47.000;16.084;2024-01-07T07:24:14;4.60;99.90
1594;DHT22;790;47.000;16.084;2024-01-07T07:35:34;4.50;99.90
1594;DHT22;790;47.000;16.084;2024-01-07T07:41:57;4.50;99.90
1594;DHT22;790;47.000;16.084;2024-01-07T07:48:29;4.50;99.90
1594;DHT22;790;47.000;16.084;2024-01-07T07:54:54;4.40;99.90
1594;DHT22;790;47.000;16.084;2024-01-07T08:01:37;4.50;99.90
1594;DHT22;790;47.000;16.084;2024-01-07T08:07:59;4.40;99.90
1594;DHT22;790;47.000;16.084;2024-01-07T08:14:23;4.30;99.90
1594;DHT22;790;47.000;16.084;2024-01-07T08:20:45;4.30;99.90
1594;DHT22;790;47.000;16.084;2024-01-07T08:27:08;4.20;99.90
1594;DHT22;790;47.000;16.084;2024-01-07T08:38:07;4.20;99.90
1594;DHT22;790;47.000;16.084;2024-01-07T08:44:29;4.40;99.90
1594;DHT22;790;47.000;16.084;2024-01-07T08:50:53;4.30;99.90
1594;DHT22;790;47.000;16.084;2024-01-07T08:57:17;4.10;99.90
1594;DHT22;790;47.000;16.084;2024-01-07T09:03:39;4.20;99.90
1594;DHT22;790;47.000;16.084;2024-01-07T09:10:01;4.20;99.90
1594;DHT22;790;47.000;16.084;2024-01-07T09:16:26;4.40;99.90
1594;DHT22;790;47.000;16.084;2024-01-07T09:22:49;4.40;99.90
1594;DHT22;790;47.000;16.084;2024-01-07T09:29:11;4.30;99.90
1594;DHT22;790;47.000;16.084;2024-01-07T09:40:11;4.30;99.90
1594;DHT22;790;47.000;16.084;2024-01-07T09:46:35;4.20;99.90
1594;DHT22;790;47.000;16.084;2024-01-07T09:52:59;4.30;99.90
1594;DHT22;790;47.000;16.084;2024-01-07T09:59:25;4.30;99.90
1594;DHT22;790;47.000;16.084;2024-01-07T10:05:49;4.20;99.90
1594;DHT22;790;47.000;16.084;2024-01-07T10:12:10;4.30;99.90
1594;DHT22;790;47.000;16.084;2024-01-07T10:18:35;4.20;99.90
1594;DHT22;790;47.000;16.084;2024-01-07T10:24:57;4.10;99.90
1594;DHT22;790;47.000;16.084;2024-01-07T10:31:20;4.20;99.90
1594;DHT22;790;47.000;16.084;2024-01-07T10:42:28;4.60;99.90
1594;DHT22;790;47.000;16.084;2024-01-07T10:48:55;4.30;99.90
1594;DHT22;790;47.000;16.084;2024-01-07T10:55:18;4.40;99.90
1594;DHT22;790;47.000;16.084;2024-01-07T11:01:43;4.40;99.90
1594;DHT22;790;47.000;16.084;2024-01-07T11:08:08;4.50;99.90
1594;DHT22;790;47.000;16.084;2024-01-07T11:14:40;4.40;99.90
1594;DHT22;790;47.000;16.084;2024-01-07T11:21:07;4.20;99.90
1594;DHT22;790;47.000;16.084;2024-01-07T11:27:30;4.20;99.90
1594;DHT22;790;47.000;16.084;2024-01-07T11:33:54;4.00;99.90
1594;DHT22;790;47.000;16.084;2024-01-07T11:45:12;4.10;99.90
1594;DHT22;790;47.000;16.084;2024-01-07T11:51:37;4.10;99.90
1594;DHT22;790;47.000;16.084;2024-01-07T11:58:01;4.40;99.90
1594;DHT22;790;47.000;16.084;2024-01-07T12:04:25;4.50;99.90
1594;DHT22;790;47.000;16.084;2024-01-07T12:10:49;4.60;99.90
1594;DHT22;790;47.000;16.084;2024-01-07T12:17:12;4.70;99.90
1594;DHT22;790;47.000;16.084;2024-01-07T12:23:36;4.80;99.90
1594;DHT22;790;47.000;16.084;2024-01-07T12:29:59;4.90;99.90
1594;DHT22;790;47.000;16.084;2024-01-07T12:36:21;4.90;99.90
1594;DHT22;790;47.000;16.084;2024-01-07T12:47:39;4.80;99.90
1594;DHT22;790;47.000;16.084;2024-01-07T12:54:02;4.70;99.90
1594;DHT22;790;47.000;16.084;2024-01-07T13:00:23;4.70;99.90
1594;DHT22;790;47.000;16.084;2024-01-07T13:06:50;4.80;99.90
1594;DHT22;790;47.000;16.084;2024-01-07T13:13:13;4.80;99.90
1594;DHT22;790;47.000;16.084;2024-01-07T13:19:35;4.80;99.90
1594;DHT22;790;47.000;16.084;2024-01-07T13:26:00;4.70;99.90
1594;DHT22;790;47.000;16.084;2024-01-07T13:32:26;4.70;99.90
1594;DHT22;790;47.000;16.084;2024-01-07T13:38:48;4.70;99.90
1594;DHT22;790;47.000;16.084;2024-01-07T13:50:07;4.80;99.90
1594;DHT22;790;47.000;16.084;2024-01-07T13:56:31;4.90;99.90
1594;DHT22;790;47.000;16.084;2024-01-07T14:02:57;4.70;99.90
1594;DHT22;790;47.000;16.084;2024-01-07T14:09:21;4.70;99.90
1594;DHT22;790;47.000;16.084;2024-01-07T14:15:45;4.70;99.90
1594;DHT22;790;47.000;16.084;2024-01-07T14:22:08;4.70;99.90
1594;DHT22;790;47.000;16.084;2024-01-07T14:28:31;4.60;99.90
1594;DHT22;790;47.000;16.084;2024-01-07T14:34:54;4.50;99.90
1594;DHT22;790;47.000;16.084;2024-01-07T14:41:16;4.50;99.90
1594;DHT22;790;47.000;16.084;2024-01-07T14:52:34;4.50;99.90
1594;DHT22;790;47.000;16.084;2024-01-07T14:58:56;4.50;99.90
1594;DHT22;790;47.000;16.084;2024-01-07T15:05:19;4.40;99.90
1594;DHT22;790;47.000;16.084;2024-01-07T15:11:44;4.40;99.90
1594;DHT22;790;47.000;16.084;2024-01-07T15:18:08;4.30;99.90
1594;DHT22;790;47.000;16.084;2024-01-07T15:24:32;4.30;99.90
1594;DHT22;790;47.000;16.084;2024-01-07T15:30:55;4.20;99.90
1594;DHT22;790;47.000;16.084;2024-01-07T15:37:18;4.20;99.90
1594;DHT22;790;47.000;16.084;2024-01-07T15:43:41;4.30;99.90
1594;DHT22;790;47.000;16.084;2024-01-07T15:54:58;4.20;99.90
1594;DHT22;790;47.000;16.084;2024-01-07T16:01:20;4.30;99.90
1594;DHT22;790;47.000;16.084;2024-01-07T16:07:43;4.30;99.90
1594;DHT22;790;47.000;16.084;2024-01-07T16:14:07;4.30;99.90
1594;DHT22;790;47.000;16.084;2024-01-07T16:20:30;4.20;99.90
1594;DHT22;790;47.000;16.084;2024-01-07T16:26:54;4.10;99.90
1594;DHT22;790;47.000;16.084;2024-01-07T16:33:18;4.20;99.90
1594;DHT22;790;47.000;16.084;2024-01-07T16:39:40;4.10;99.90
1594;DHT22;790;47.000;16.084;2024-01-07T16:46:03;4.10;99.90
1594;DHT22;790;47.000;16.084;2024-01-07T16:57:21;4.30;99.90
1594;DHT22;790;47.000;16.084;2024-01-07T17:03:44;4.20;99.90
1594;DHT22;790;47.000;16.084;2024-01-07T17:10:08;4.10;99.90
1594;DHT22;790;47.000;16.084;2024-01-07T17:16:33;4.10;99.90
1594;DHT22;790;47.000;16.084;2024-01-07T17:22:55;4.20;99.90
1594;DHT22;790;47.000;16.084;2024-01-07T17:29:19;4.20;99.90
1594;DHT22;790;47.000;16.084;2024-01-07T17:35:43;4.20;99.90
1594;DHT22;790;47.000;16.084;2024-01-07T17:42:25;4.10;99.90
1594;DHT22;790;47.000;16.084;2024-01-07T17:48:48;4.20;99.90
1594;DHT22;790;47.000;16.084;2024-01-07T17:59:47;4.20;99.90
1594;DHT22;790;47.000;16.084;2024-01-07T18:06:09;4.20;99.90
1594;DHT22;790;47.000;16.084;2024-01-07T18:12:32;4.10;99.90
1594;DHT22;790;47.000;16.084;2024-01-07T18:18:55;4.10;99.90
1594;DHT22;790;47.000;16.084;2024-01-07T18:25:17;4.10;99.90
1594;DHT22;790;47.000;16.084;2024-01-07T18:31:40;4.10;99.90
1594;DHT22;790;47.000;16.084;2024-01-07T18:38:06;4.00;99.90
1594;DHT22;790;47.000;16.084;2024-01-07T18:44:28;4.00;99.90
1594;DHT22;790;47.000;16.084;2024-01-07T18:50:51;4.00;99.90
1594;DHT22;790;47.000;16.084;2024-01-07T19:01:49;4.00;99.90
1594;DHT22;790;47.000;16.084;2024-01-07T19:08:12;4.00;99.90
1594;DHT22;790;47.000;16.084;2024-01-07T19:14:35;4.00;99.90
1594;DHT22;790;47.000;16.084;2024-01-07T19:20:58;4.00;99.90
1594;DHT22;790;47.000;16.084;2024-01-07T19:27:21;4.10;99.90
1594;DHT22;790;47.000;16.084;2024-01-07T19:33:44;4.10;99.90
1594;DHT22;790;47.000;16.084;2024-01-07T19:40:08;4.00;99.90
1594;DHT22;790;47.000;16.084;2024-01-07T19:46:31;4.00;99.90
1594;DHT22;790;47.000;16.084;2024-01-07T19:52:54;3.90;99.90
1594;DHT22;790;47.000;16.084;2024-01-07T20:04:01;4.00;99.90
1594;DHT22;790;47.000;16.084;2024-01-07T20:10:24;3.90;99.90
1594;DHT22;790;47.000;16.084;2024-01-07T20:16:47;4.00;99.90
1594;DHT22;790;47.000;16.084;2024-01-07T20:23:10;4.00;99.90
1594;DHT22;790;47.000;16.084;2024-01-07T20:29:33;3.90;99.90
1594;DHT22;790;47.000;16.084;2024-01-07T20:35:57;3.90;99.90
1594;DHT22;790;47.000;16.084;2024-01-07T20:42:20;3.70;99.90
1594;DHT22;790;47.000;16.084;2024-01-07T20:48:43;3.70;99.90
1594;DHT22;790;47.000;16.084;2024-01-07T20:55:05;3.60;99.90
1594;DHT22;790;47.000;16.084;2024-01-07T21:06:14;3.50;99.90
1594;DHT22;790;47.000;16.084;2024-01-07T21:12:37;3.40;99.90
1594;DHT22;790;47.000;16.084;2024-01-07T21:19:00;3.40;99.90
1594;DHT22;790;47.000;16.084;2024-01-07T21:25:24;3.40;99.90
1594;DHT22;790;47.000;16.084;2024-01-07T21:31:47;3.40;99.90
1594;DHT22;790;47.000;16.084;2024-01-07T21:38:09;3.40;99.90
1594;DHT22;790;47.000;16.084;2024-01-07T21:44:32;3.30;99.90
1594;DHT22;790;47.000;16.084;2024-01-07T21:51:24;3.30;99.90
1594;DHT22;790;47.000;16.084;2024-01-07T21:57:50;3.20;99.90
1594;DHT22;790;47.000;16.084;2024-01-07T22:09:08;3.10;99.90
1594;DHT22;790;47.000;16.084;2024-01-07T22:15:31;3.10;99.90
1594;DHT22;790;47.000;16.084;2024-01-07T22:21:54;3.10;99.90
1594;DHT22;790;47.000;16.084;2024-01-07T22:28:17;3.10;99.90
1594;DHT22;790;47.000;16.084;2024-01-07T22:34:40;3.00;99.90
1594;DHT22;790;47.000;16.084;2024-01-07T22:41:02;3.00;99.90
1594;DHT22;790;47.000;16.084;2024-01-07T22:47:25;3.10;99.90
1594;DHT22;790;47.000;16.084;2024-01-07T22:53:48;3.20;99.90
1594;DHT22;790;47.000;16.084;2024-01-07T23:00:10;3.20;99.90
1594;DHT22;790;47.000;16.084;2024-01-07T23:11:31;3.10;99.90
1594;DHT22;790;47.000;16.084;2024-01-07T23:17:54;3.00;99.90
1594;DHT22;790;47.000;16.084;2024-01-07T23:24:16;3.10;99.90
1594;DHT22;790;47.000;16.084;2024-01-07T23:30:40;3.10;99.90
1594;DHT22;790;47.000;16.084;2024-01-07T23:37:03;3.10;99.90
1594;DHT22;790;47.000;16.084;2024-01-07T23:43:26;2.90;99.90
1594;DHT22;790;47.000;16.084;2024-01-07T23:49:50;2.70;99.90
1594;DHT22;790;47.000;16.084;2024-01-07T23:56:13;2.80;99.90
